Time;durP1;ratioP1;P1;durP2;ratioP2;P2;SDS_P1;SDS_P2;PMS_P1;PMS_P2;Temp;Humidity;BMP_temperature;BMP_pressure;BME280_temperature;BME280_humidity;BME280_pressure;Samples;Min_cycle;Max_cycle;Signal;HPM_P1;HPM_P2
2022/10/19 00:01:12;;;;;;;61.00;4.77;;;;;;;;;;5112450;28;20550;-69
2022/10/19 00:03:40;;;;;;;61.10;4.53;;;;;;;;;;5112396;28;20451;-70
2022/10/19 00:06:11;;;;;;;59.80;4.00;;;;;;;;;;5112215;28;20477;-69
2022/10/19 00:08:38;;;;;;;61.67;4.30;;;;;;;;;;5112246;28;20454;-69
2022/10/19 00:11:05;;;;;;;59.60;4.40;;;;;;;;;;5112413;28;20453;-69
2022/10/19 00:13:34;;;;;;;60.73;5.00;;;;;;;;;;5112066;28;20485;-69
2022/10/19 00:16:01;;;;;;;61.67;4.87;;;;;;;;;;5112464;28;20466;-69
2022/10/19 00:18:28;;;;;;;61.90;4.73;;;;;;;;;;5111978;28;20444;-69
2022/10/19 00:21:02;;;;;;;60.83;4.40;;;;;;;;;;5111882;28;20453;-69
2022/10/19 00:23:29;;;;;;;63.80;4.80;;;;;;;;;;5112142;28;20441;-69
2022/10/19 00:25:56;;;;;;;62.90;5.10;;;;;;;;;;5111965;28;21012;-69
2022/10/19 00:28:23;;;;;;;60.23;4.37;;;;;;;;;;5112015;28;20448;-68
2022/10/19 00:30:52;;;;;;;60.77;4.77;;;;;;;;;;5111860;28;20793;-69
2022/10/19 00:33:21;;;;;;;60.67;5.20;;;;;;;;;;5111913;28;20484;-68
2022/10/19 00:35:48;;;;;;;60.90;5.60;;;;;;;;;;5111916;28;20540;-68
2022/10/19 00:38:16;;;;;;;62.43;4.87;;;;;;;;;;5112192;28;20462;-68
2022/10/19 00:40:43;;;;;;;61.50;5.47;;;;;;;;;;5111728;28;20444;-70
2022/10/19 00:43:11;;;;;;;61.60;5.07;;;;;;;;;;5111894;28;20455;-68
2022/10/19 00:45:39;;;;;;;62.80;5.27;;;;;;;;;;5111737;28;20474;-69
2022/10/19 00:48:07;;;;;;;63.73;6.00;;;;;;;;;;5112076;28;20520;-69
2022/10/19 00:50:34;;;;;;;60.80;4.73;;;;;;;;;;5111840;28;20447;-69
2022/10/19 00:53:01;;;;;;;61.70;5.87;;;;;;;;;;5111917;28;20446;-69
2022/10/19 00:55:29;;;;;;;61.67;5.00;;;;;;;;;;5111753;28;20459;-68
2022/10/19 00:57:56;;;;;;;59.50;4.23;;;;;;;;;;5112078;28;20449;-69
2022/10/19 01:00:23;;;;;;;61.47;4.73;;;;;;;;;;5111460;28;20539;-69
2022/10/19 01:02:50;;;;;;;59.67;4.10;;;;;;;;;;5111926;28;20447;-68
2022/10/19 01:05:19;;;;;;;62.40;5.77;;;;;;;;;;5111819;28;20454;-68
2022/10/19 01:07:46;;;;;;;61.20;6.40;;;;;;;;;;5114612;28;20447;-69
2022/10/19 01:10:13;;;;;;;60.40;5.73;;;;;;;;;;5115367;28;20569;-69
2022/10/19 01:12:51;;;;;;;61.53;5.37;;;;;;;;;;5115521;28;20443;-69
2022/10/19 01:15:22;;;;;;;61.30;5.20;;;;;;;;;;5115689;28;20599;-69
2022/10/19 01:17:57;;;;;;;60.53;4.83;;;;;;;;;;5115725;28;20431;-69
2022/10/19 01:20:40;;;;;;;61.03;4.60;;;;;;;;;;5115358;28;20446;-69
2022/10/19 01:23:26;;;;;;;62.33;5.80;;;;;;;;;;5115309;28;20454;-70
2022/10/19 01:25:56;;;;;;;61.23;5.27;;;;;;;;;;5115479;28;20544;-68
2022/10/19 01:28:35;;;;;;;61.77;5.73;;;;;;;;;;5115243;28;20442;-69
2022/10/19 01:31:08;;;;;;;61.10;5.00;;;;;;;;;;5115225;28;20453;-69
2022/10/19 01:33:42;;;;;;;61.83;4.43;;;;;;;;;;5114982;28;21011;-68
2022/10/19 01:36:14;;;;;;;60.77;4.77;;;;;;;;;;5115323;28;20797;-68
2022/10/19 01:38:45;;;;;;;62.63;5.27;;;;;;;;;;5114828;28;20450;-69
2022/10/19 01:41:16;;;;;;;60.53;5.00;;;;;;;;;;5113420;28;20460;-69
2022/10/19 01:43:45;;;;;;;73.10;5.53;;;;;;;;;;5115148;28;20948;-69
2022/10/19 01:46:16;;;;;;;63.83;4.77;;;;;;;;;;5115126;28;20470;-69
2022/10/19 01:48:46;;;;;;;62.80;5.73;;;;;;;;;;5114710;28;20459;-69
2022/10/19 01:51:15;;;;;;;59.60;4.50;;;;;;;;;;5115529;28;20449;-68
2022/10/19 01:53:45;;;;;;;62.80;4.87;;;;;;;;;;5114714;28;20995;-68
2022/10/19 01:56:12;;;;;;;60.97;4.50;;;;;;;;;;5114836;28;20848;-69
2022/10/19 01:58:41;;;;;;;61.07;4.87;;;;;;;;;;5114526;28;20459;-68
2022/10/19 02:01:10;;;;;;;60.70;5.20;;;;;;;;;;5114858;28;20826;-69
2022/10/19 02:03:39;;;;;;;60.20;4.73;;;;;;;;;;5114683;28;20459;-68
2022/10/19 02:06:07;;;;;;;61.47;6.00;;;;;;;;;;5114549;28;20953;-69
2022/10/19 02:08:38;;;;;;;62.57;6.10;;;;;;;;;;5114590;28;20457;-69
2022/10/19 02:11:06;;;;;;;62.93;4.83;;;;;;;;;;5114823;28;20452;-69
2022/10/19 02:13:33;;;;;;;63.17;5.37;;;;;;;;;;5114350;28;20456;-69
2022/10/19 02:16:02;;;;;;;65.23;5.60;;;;;;;;;;5114485;28;20466;-68
2022/10/19 02:18:31;;;;;;;60.00;4.43;;;;;;;;;;5114176;28;20450;-70
2022/10/19 02:21:01;;;;;;;60.40;5.30;;;;;;;;;;5114590;28;20810;-69
2022/10/19 02:23:28;;;;;;;70.40;5.37;;;;;;;;;;5114428;28;20522;-69
2022/10/19 02:25:56;;;;;;;61.00;5.83;;;;;;;;;;5114273;28;20475;-68
2022/10/19 02:28:23;;;;;;;61.70;5.10;;;;;;;;;;5114153;28;20451;-69
2022/10/19 02:30:50;;;;;;;61.30;5.20;;;;;;;;;;5113857;28;20452;-69
2022/10/19 02:33:18;;;;;;;60.97;5.10;;;;;;;;;;5113996;28;20826;-70
2022/10/19 02:35:45;;;;;;;60.50;4.07;;;;;;;;;;5113871;27;20499;-68
2022/10/19 02:38:16;;;;;;;61.77;4.20;;;;;;;;;;5114016;27;20532;-69
2022/10/19 02:40:45;;;;;;;59.80;4.27;;;;;;;;;;5113781;28;20514;-68
2022/10/19 02:43:17;;;;;;;62.00;5.13;;;;;;;;;;5113897;28;20453;-69
2022/10/19 02:45:47;;;;;;;59.13;3.80;;;;;;;;;;5113700;28;20504;-69
2022/10/19 02:48:18;;;;;;;62.47;6.63;;;;;;;;;;5113801;28;20453;-69
2022/10/19 02:50:46;;;;;;;63.67;4.47;;;;;;;;;;5113996;28;20449;-69
2022/10/19 02:53:14;;;;;;;61.60;4.13;;;;;;;;;;5113771;28;20894;-69
2022/10/19 02:55:42;;;;;;;60.27;4.23;;;;;;;;;;5113432;28;20495;-68
2022/10/19 02:58:09;;;;;;;60.77;4.63;;;;;;;;;;5113323;28;20449;-69
2022/10/19 03:00:36;;;;;;;60.00;3.70;;;;;;;;;;5113270;28;20932;-68
2022/10/19 03:03:03;;;;;;;61.00;4.50;;;;;;;;;;5113671;28;20445;-68
2022/10/19 03:05:30;;;;;;;59.10;3.87;;;;;;;;;;5113435;28;20441;-68
2022/10/19 03:07:57;;;;;;;59.63;3.67;;;;;;;;;;5113241;28;20449;-69
2022/10/19 03:10:26;;;;;;;60.50;4.40;;;;;;;;;;5113026;28;20456;-68
2022/10/19 03:12:53;;;;;;;59.70;4.60;;;;;;;;;;5113218;28;20452;-69
2022/10/19 03:15:23;;;;;;;61.70;4.53;;;;;;;;;;5113193;28;20481;-69
2022/10/19 03:17:53;;;;;;;61.57;5.47;;;;;;;;;;5113165;28;20458;-69
2022/10/19 03:20:20;;;;;;;61.27;4.70;;;;;;;;;;5112924;28;20437;-69
2022/10/19 03:22:47;;;;;;;60.70;4.70;;;;;;;;;;5113177;28;20449;-70
2022/10/19 03:25:14;;;;;;;62.17;5.60;;;;;;;;;;5112898;28;20456;-68
2022/10/19 03:27:42;;;;;;;61.50;4.07;;;;;;;;;;5113063;28;20855;-69
2022/10/19 03:30:10;;;;;;;60.67;4.70;;;;;;;;;;5112312;28;20444;-68
2022/10/19 03:32:37;;;;;;;61.50;5.43;;;;;;;;;;5113171;28;20618;-69
2022/10/19 03:35:04;;;;;;;60.17;4.70;;;;;;;;;;5112832;28;20486;-69
2022/10/19 03:37:31;;;;;;;61.10;4.57;;;;;;;;;;5112645;28;20464;-69
2022/10/19 03:39:58;;;;;;;61.63;4.37;;;;;;;;;;5112300;28;20957;-69
2022/10/19 03:42:25;;;;;;;62.37;4.23;;;;;;;;;;5112831;28;20447;-70
2022/10/19 03:44:54;;;;;;;60.27;4.43;;;;;;;;;;5112897;28;20442;-69
2022/10/19 03:47:21;;;;;;;60.37;5.07;;;;;;;;;;5112529;28;20997;-69
2022/10/19 03:49:49;;;;;;;61.03;4.57;;;;;;;;;;5112366;28;20445;-69
2022/10/19 03:52:16;;;;;;;59.87;4.53;;;;;;;;;;5112418;28;20445;-69
2022/10/19 03:54:43;;;;;;;62.10;4.60;;;;;;;;;;5112520;28;21004;-68
2022/10/19 03:57:10;;;;;;;59.63;4.43;;;;;;;;;;5112397;28;21003;-69
2022/10/19 03:59:38;;;;;;;61.40;5.20;;;;;;;;;;5112267;28;20445;-69
2022/10/19 04:02:06;;;;;;;60.53;4.63;;;;;;;;;;5112423;28;20959;-68
2022/10/19 04:04:33;;;;;;;64.20;5.50;;;;;;;;;;5112346;28;20446;-68
2022/10/19 04:07:00;;;;;;;59.10;3.90;;;;;;;;;;5111924;28;20480;-69
2022/10/19 04:09:27;;;;;;;60.17;3.70;;;;;;;;;;5112172;28;20453;-69
2022/10/19 04:11:55;;;;;;;59.70;4.03;;;;;;;;;;5112222;28;20536;-69
2022/10/19 04:14:22;;;;;;;60.30;4.77;;;;;;;;;;5112344;28;20481;-69
2022/10/19 04:16:49;;;;;;;62.97;5.20;;;;;;;;;;5112190;28;20465;-69
2022/10/19 04:19:17;;;;;;;85.47;5.90;;;;;;;;;;5111866;28;20566;-69
2022/10/19 04:21:44;;;;;;;60.97;4.20;;;;;;;;;;5112354;28;20445;-69
2022/10/19 04:24:12;;;;;;;62.93;6.03;;;;;;;;;;5112271;28;20449;-68
2022/10/19 04:26:41;;;;;;;61.20;5.03;;;;;;;;;;5112138;28;20469;-68
2022/10/19 04:29:08;;;;;;;63.63;5.00;;;;;;;;;;5111798;28;20941;-69
2022/10/19 04:31:35;;;;;;;60.27;4.80;;;;;;;;;;5112172;28;20448;-70
2022/10/19 04:34:02;;;;;;;62.40;5.13;;;;;;;;;;5111804;28;20458;-68
2022/10/19 04:36:30;;;;;;;58.90;3.80;;;;;;;;;;5112126;28;20855;-69
2022/10/19 04:38:57;;;;;;;61.40;5.50;;;;;;;;;;5111793;28;20452;-69
2022/10/19 04:41:25;;;;;;;62.37;5.57;;;;;;;;;;5112746;28;20818;-68
2022/10/19 04:43:56;;;;;;;61.40;4.80;;;;;;;;;;5116737;28;20832;-69
2022/10/19 04:46:23;;;;;;;61.00;5.00;;;;;;;;;;5115924;28;20474;-69
2022/10/19 04:48:51;;;;;;;61.70;4.97;;;;;;;;;;5115993;28;20459;-69
2022/10/19 04:51:19;;;;;;;59.63;4.00;;;;;;;;;;5116286;28;20449;-69
2022/10/19 04:53:48;;;;;;;60.67;5.07;;;;;;;;;;5115871;28;20441;-69
2022/10/19 04:56:16;;;;;;;61.03;3.93;;;;;;;;;;5116263;28;20488;-69
2022/10/19 04:58:43;;;;;;;62.80;5.57;;;;;;;;;;5115582;28;20459;-69
2022/10/19 05:01:11;;;;;;;58.63;3.07;;;;;;;;;;5115843;28;20973;-69
2022/10/19 05:03:38;;;;;;;59.53;4.40;;;;;;;;;;5116022;28;20818;-69
2022/10/19 05:06:05;;;;;;;58.67;3.37;;;;;;;;;;5115868;28;20471;-68
2022/10/19 05:08:33;;;;;;;62.70;5.40;;;;;;;;;;5115520;27;20448;-69
2022/10/19 05:11:05;;;;;;;61.20;4.90;;;;;;;;;;5115597;28;20979;-68
2022/10/19 05:13:32;;;;;;;59.20;4.13;;;;;;;;;;5115482;28;20444;-70
2022/10/19 05:16:00;;;;;;;59.00;3.73;;;;;;;;;;5115761;28;20489;-69
2022/10/19 05:18:27;;;;;;;62.37;5.20;;;;;;;;;;5115632;28;20452;-69
2022/10/19 05:21:00;;;;;;;60.17;3.97;;;;;;;;;;5115279;28;20463;-70
2022/10/19 05:23:28;;;;;;;61.47;4.00;;;;;;;;;;5115390;28;20471;-69
2022/10/19 05:25:59;;;;;;;61.43;5.07;;;;;;;;;;5115352;28;20469;-69
2022/10/19 05:28:27;;;;;;;59.40;4.17;;;;;;;;;;5115169;28;20459;-70
2022/10/19 05:30:54;;;;;;;60.20;4.27;;;;;;;;;;5115257;28;20441;-69
2022/10/19 05:33:22;;;;;;;62.10;4.53;;;;;;;;;;5115431;28;20451;-69
2022/10/19 05:35:49;;;;;;;60.40;4.27;;;;;;;;;;5113909;28;20493;-69
2022/10/19 05:38:16;;;;;;;61.80;5.97;;;;;;;;;;5114271;28;20942;-69
2022/10/19 05:40:46;;;;;;;60.40;4.20;;;;;;;;;;5113494;28;20470;-69
2022/10/19 05:43:13;;;;;;;59.80;4.13;;;;;;;;;;5114113;28;20452;-70
2022/10/19 05:45:41;;;;;;;61.40;5.17;;;;;;;;;;5113958;28;20480;-69
2022/10/19 05:48:09;;;;;;;61.63;5.87;;;;;;;;;;5113937;28;20456;-69
2022/10/19 05:50:36;;;;;;;60.60;4.03;;;;;;;;;;5113695;28;20822;-69
2022/10/19 05:53:03;;;;;;;61.63;5.10;;;;;;;;;;5113288;28;20460;-70
2022/10/19 05:55:30;;;;;;;60.23;4.27;;;;;;;;;;5113633;28;20491;-69
2022/10/19 05:57:57;;;;;;;64.50;5.10;;;;;;;;;;5113673;28;20815;-70
2022/10/19 06:00:24;;;;;;;59.37;4.60;;;;;;;;;;5113436;28;20543;-69
2022/10/19 06:02:52;;;;;;;60.20;4.67;;;;;;;;;;5113626;28;20456;-70
2022/10/19 06:05:19;;;;;;;61.53;4.10;;;;;;;;;;5113456;28;20441;-69
2022/10/19 06:07:47;;;;;;;60.27;4.73;;;;;;;;;;5113412;28;20445;-69
2022/10/19 06:10:14;;;;;;;63.53;5.07;;;;;;;;;;5113165;28;20459;-69
2022/10/19 06:12:41;;;;;;;59.47;3.80;;;;;;;;;;5113555;28;20496;-69
2022/10/19 06:15:08;;;;;;;61.03;4.90;;;;;;;;;;5113477;28;20477;-69
2022/10/19 06:17:35;;;;;;;60.10;3.73;;;;;;;;;;5113237;28;20474;-70
2022/10/19 06:20:04;;;;;;;60.63;4.67;;;;;;;;;;5112787;28;20964;-69
2022/10/19 06:22:31;;;;;;;62.37;4.20;;;;;;;;;;5113496;28;20446;-69
2022/10/19 06:24:59;;;;;;;59.60;4.80;;;;;;;;;;5113409;28;20448;-69
2022/10/19 06:27:26;;;;;;;59.47;3.97;;;;;;;;;;5113190;28;20475;-70
2022/10/19 06:29:53;;;;;;;60.30;4.43;;;;;;;;;;5112770;28;20483;-69
2022/10/19 06:32:20;;;;;;;59.70;3.83;;;;;;;;;;5113177;28;20475;-70
2022/10/19 06:34:47;;;;;;;59.97;4.83;;;;;;;;;;5099247;28;374392;-69
2022/10/19 06:37:15;;;;;;;60.37;4.40;;;;;;;;;;5113336;28;20471;-70
2022/10/19 06:39:42;;;;;;;60.17;4.40;;;;;;;;;;5113791;28;20802;-69
2022/10/19 06:42:10;;;;;;;59.50;4.10;;;;;;;;;;5114054;28;20449;-69
2022/10/19 06:44:37;;;;;;;59.80;4.63;;;;;;;;;;5113893;27;20950;-69
2022/10/19 06:47:04;;;;;;;62.67;4.90;;;;;;;;;;5113733;28;20461;-69
2022/10/19 06:49:34;;;;;;;60.30;4.60;;;;;;;;;;5113461;28;20622;-69
2022/10/19 06:52:01;;;;;;;59.37;3.93;;;;;;;;;;5111676;28;20489;-69
2022/10/19 06:54:30;;;;;;;59.10;4.00;;;;;;;;;;5113303;28;20453;-68
2022/10/19 06:56:57;;;;;;;60.90;4.63;;;;;;;;;;5113072;28;20489;-69
2022/10/19 06:59:24;;;;;;;58.83;3.70;;;;;;;;;;5112635;28;20457;-69
2022/10/19 07:01:51;;;;;;;60.93;4.43;;;;;;;;;;5112857;28;20446;-69
2022/10/19 07:04:18;;;;;;;59.27;4.07;;;;;;;;;;5112322;28;20801;-68
2022/10/19 07:06:45;;;;;;;60.43;3.90;;;;;;;;;;5113136;28;20472;-68
2022/10/19 07:09:13;;;;;;;62.77;4.90;;;;;;;;;;5112965;28;20448;-69
2022/10/19 07:11:41;;;;;;;60.43;4.30;;;;;;;;;;5112864;28;20938;-68
2022/10/19 07:14:08;;;;;;;62.10;4.73;;;;;;;;;;5113017;28;20471;-69
2022/10/19 07:16:35;;;;;;;60.40;4.53;;;;;;;;;;5112687;28;20499;-69
2022/10/19 07:19:02;;;;;;;59.47;4.80;;;;;;;;;;5112853;28;20944;-69
2022/10/19 07:21:29;;;;;;;59.80;4.50;;;;;;;;;;5113329;28;20446;-69
2022/10/19 07:23:56;;;;;;;60.00;4.20;;;;;;;;;;5113169;28;20800;-69
2022/10/19 07:26:26;;;;;;;62.30;5.20;;;;;;;;;;5113038;27;20468;-70
2022/10/19 07:28:56;;;;;;;59.70;4.30;;;;;;;;;;5112704;28;20467;-69
2022/10/19 07:31:24;;;;;;;62.47;4.77;;;;;;;;;;5113422;28;20449;-69
2022/10/19 07:33:53;;;;;;;60.53;4.77;;;;;;;;;;5112796;28;20437;-69
2022/10/19 07:36:20;;;;;;;59.83;4.03;;;;;;;;;;5112922;28;20481;-69
2022/10/19 07:38:47;;;;;;;59.10;4.30;;;;;;;;;;5112506;28;20828;-69
2022/10/19 07:41:15;;;;;;;60.90;4.73;;;;;;;;;;5112775;28;20450;-69
2022/10/19 07:43:43;;;;;;;60.03;4.67;;;;;;;;;;5112727;28;20888;-70
2022/10/19 07:46:12;;;;;;;60.60;4.57;;;;;;;;;;5113026;28;20848;-69
2022/10/19 07:48:39;;;;;;;60.37;4.37;;;;;;;;;;5112488;28;20826;-69
2022/10/19 07:51:07;;;;;;;60.17;4.60;;;;;;;;;;5112637;28;20446;-70
2022/10/19 07:53:34;;;;;;;61.77;5.20;;;;;;;;;;5112656;28;20445;-70
2022/10/19 07:56:05;;;;;;;60.10;4.20;;;;;;;;;;5112335;28;20485;-67
2022/10/19 07:58:33;;;;;;;60.67;5.40;;;;;;;;;;5112244;28;20445;-68
2022/10/19 08:01:00;;;;;;;59.50;4.03;;;;;;;;;;5112650;28;20445;-67
2022/10/19 08:03:29;;;;;;;60.57;5.27;;;;;;;;;;5112641;28;20460;-67
2022/10/19 08:05:59;;;;;;;61.60;5.73;;;;;;;;;;5112458;28;20549;-69
2022/10/19 08:08:27;;;;;;;59.60;4.73;;;;;;;;;;5112213;28;20456;-67
2022/10/19 08:10:54;;;;;;;60.17;3.90;;;;;;;;;;5112354;28;20796;-66
2022/10/19 08:13:21;;;;;;;61.30;5.30;;;;;;;;;;5112477;28;20815;-67
2022/10/19 08:15:48;;;;;;;59.97;4.93;;;;;;;;;;5112136;27;20511;-67
2022/10/19 08:18:17;;;;;;;59.90;4.87;;;;;;;;;;5112112;28;20502;-67
2022/10/19 08:20:45;;;;;;;59.20;4.10;;;;;;;;;;5112054;28;20620;-67
2022/10/19 08:23:12;;;;;;;60.67;4.77;;;;;;;;;;5112050;28;20456;-68
2022/10/19 08:25:39;;;;;;;59.30;3.90;;;;;;;;;;5112374;28;20484;-68
2022/10/19 08:28:06;;;;;;;60.77;4.80;;;;;;;;;;5112305;28;20445;-68
2022/10/19 08:30:34;;;;;;;61.47;4.10;;;;;;;;;;5111931;28;20445;-68
2022/10/19 08:33:03;;;;;;;59.73;3.80;;;;;;;;;;5112131;28;20477;-68
2022/10/19 08:35:30;;;;;;;61.40;4.30;;;;;;;;;;5111596;28;20961;-68
2022/10/19 08:37:59;;;;;;;59.33;3.87;;;;;;;;;;5112305;28;20464;-69
2022/10/19 08:40:28;;;;;;;59.00;4.00;;;;;;;;;;5111958;28;20449;-68
2022/10/19 08:42:57;;;;;;;60.63;4.73;;;;;;;;;;5112083;28;20813;-69
2022/10/19 08:45:27;;;;;;;58.57;3.47;;;;;;;;;;5112004;28;20441;-68
2022/10/19 08:47:59;;;;;;;62.23;4.60;;;;;;;;;;5111724;28;20818;-68
2022/10/19 08:50:27;;;;;;;60.40;4.20;;;;;;;;;;5111251;28;20454;-69
2022/10/19 08:52:55;;;;;;;59.10;3.70;;;;;;;;;;5111774;28;20472;-68
2022/10/19 08:55:28;;;;;;;59.70;3.60;;;;;;;;;;5111796;28;20459;-68
2022/10/19 08:58:00;;;;;;;60.27;3.90;;;;;;;;;;5111409;28;20522;-69
2022/10/19 09:00:33;;;;;;;60.60;4.37;;;;;;;;;;5111321;28;20464;-68
2022/10/19 09:03:04;;;;;;;59.07;3.77;;;;;;;;;;5111947;28;20491;-68
2022/10/19 09:05:34;;;;;;;58.37;3.40;;;;;;;;;;5112054;28;20456;-68
2022/10/19 09:08:02;;;;;;;59.17;3.63;;;;;;;;;;5111799;28;20437;-68
2022/10/19 09:10:33;;;;;;;59.87;3.30;;;;;;;;;;5111564;28;20449;-68
2022/10/19 09:13:02;;;;;;;58.40;3.10;;;;;;;;;;5111759;28;20441;-69
2022/10/19 09:15:34;;;;;;;60.73;4.23;;;;;;;;;;5111814;28;20448;-68
2022/10/19 09:18:01;;;;;;;59.27;3.70;;;;;;;;;;5111628;28;20482;-68
2022/10/19 09:20:32;;;;;;;58.70;3.10;;;;;;;;;;5111608;28;20498;-69
2022/10/19 09:23:03;;;;;;;58.73;2.97;;;;;;;;;;5111851;28;20453;-68
2022/10/19 09:25:34;;;;;;;60.23;3.93;;;;;;;;;;5111559;28;20669;-67
2022/10/19 09:28:07;;;;;;;58.30;2.93;;;;;;;;;;5113249;28;20763;-68
2022/10/19 09:30:36;;;;;;;58.67;3.00;;;;;;;;;;5115288;28;20445;-68
2022/10/19 09:33:03;;;;;;;59.40;3.77;;;;;;;;;;5115347;28;20453;-68
2022/10/19 09:35:32;;;;;;;59.07;4.00;;;;;;;;;;5115121;28;20463;-66
2022/10/19 09:38:00;;;;;;;58.97;3.37;;;;;;;;;;5115055;28;20914;-68
2022/10/19 09:40:28;;;;;;;58.90;3.00;;;;;;;;;;5114762;28;20450;-68
2022/10/19 09:42:58;;;;;;;58.50;2.70;;;;;;;;;;5115328;28;20452;-69
2022/10/19 09:45:34;;;;;;;59.23;2.90;;;;;;;;;;5115059;28;20875;-68
2022/10/19 09:48:02;;;;;;;58.50;3.30;;;;;;;;;;5115016;28;20865;-69
2022/10/19 09:50:31;;;;;;;58.17;2.93;;;;;;;;;;5114684;27;20793;-68
2022/10/19 09:52:58;;;;;;;59.03;3.80;;;;;;;;;;5114843;28;20941;-68
2022/10/19 09:55:27;;;;;;;58.57;3.00;;;;;;;;;;5114993;28;20465;-70
2022/10/19 09:58:01;;;;;;;57.97;2.80;;;;;;;;;;5115004;27;20999;-68
2022/10/19 10:00:32;;;;;;;58.37;3.17;;;;;;;;;;5114481;28;20981;-68
2022/10/19 10:02:59;;;;;;;59.13;3.50;;;;;;;;;;5114612;28;20831;-70
2022/10/19 10:05:31;;;;;;;58.17;2.93;;;;;;;;;;5114880;28;20445;-68
2022/10/19 10:07:58;;;;;;;58.70;2.87;;;;;;;;;;5114689;28;20444;-68
2022/10/19 10:10:28;;;;;;;58.90;2.70;;;;;;;;;;5114427;27;20449;-68
2022/10/19 10:12:55;;;;;;;59.07;3.70;;;;;;;;;;5114606;28;20446;-68
2022/10/19 10:15:24;;;;;;;58.60;3.00;;;;;;;;;;5114293;28;20953;-68
2022/10/19 10:17:51;;;;;;;58.17;2.70;;;;;;;;;;5114461;28;20487;-68
2022/10/19 10:20:22;;;;;;;58.47;3.70;;;;;;;;;;5113941;28;20445;-68
2022/10/19 10:22:53;;;;;;;59.87;3.10;;;;;;;;;;5114425;27;20474;-68
2022/10/19 10:25:20;;;;;;;57.90;2.70;;;;;;;;;;5114280;28;20890;-68
2022/10/19 10:27:54;;;;;;;58.27;2.77;;;;;;;;;;5114340;28;20448;-68
2022/10/19 10:30:21;;;;;;;57.87;2.70;;;;;;;;;;5113868;28;20448;-68
2022/10/19 10:32:51;;;;;;;57.27;2.73;;;;;;;;;;5114340;27;20456;-69
2022/10/19 10:35:19;;;;;;;58.17;2.70;;;;;;;;;;5114085;28;20453;-68
2022/10/19 10:37:47;;;;;;;58.60;3.03;;;;;;;;;;5114206;28;20586;-68
2022/10/19 10:40:21;;;;;;;58.63;3.00;;;;;;;;;;5112511;28;20456;-68
2022/10/19 10:42:50;;;;;;;59.23;2.80;;;;;;;;;;5113851;28;20445;-68
2022/10/19 10:45:19;;;;;;;58.00;2.60;;;;;;;;;;5114218;28;20450;-69
2022/10/19 10:47:47;;;;;;;58.20;2.43;;;;;;;;;;5114138;28;20444;-68
2022/10/19 10:50:20;;;;;;;58.87;2.80;;;;;;;;;;5113597;28;20445;-68
2022/10/19 10:52:58;;;;;;;58.17;2.67;;;;;;;;;;5113882;28;20445;-67
2022/10/19 10:55:25;;;;;;;59.37;4.23;;;;;;;;;;5113614;27;20457;-68
2022/10/19 10:57:55;;;;;;;58.97;4.13;;;;;;;;;;5113762;28;20485;-69
2022/10/19 11:00:23;;;;;;;59.50;3.67;;;;;;;;;;5113566;28;20445;-69
2022/10/19 11:02:55;;;;;;;58.40;3.00;;;;;;;;;;5113605;28;20474;-69
2022/10/19 11:05:25;;;;;;;59.57;2.80;;;;;;;;;;5113495;28;20454;-69
2022/10/19 11:07:55;;;;;;;57.93;2.50;;;;;;;;;;5113415;28;20446;-69
2022/10/19 11:10:24;;;;;;;57.63;2.50;;;;;;;;;;5113243;28;20460;-69
2022/10/19 11:12:54;;;;;;;57.90;2.50;;;;;;;;;;5113480;27;20815;-69
2022/10/19 11:15:23;;;;;;;58.00;2.83;;;;;;;;;;5113610;28;20754;-69
2022/10/19 11:17:54;;;;;;;57.73;2.40;;;;;;;;;;5113143;28;21001;-69
2022/10/19 11:20:23;;;;;;;60.07;3.63;;;;;;;;;;5112955;28;20438;-69
2022/10/19 11:22:55;;;;;;;57.73;2.43;;;;;;;;;;5113348;28;20445;-71
2022/10/19 11:25:30;;;;;;;57.43;2.40;;;;;;;;;;5113109;28;20456;-69
2022/10/19 11:28:03;;;;;;;58.50;3.00;;;;;;;;;;5112919;28;20441;-69
2022/10/19 11:30:31;;;;;;;57.83;2.50;;;;;;;;;;5112761;28;20471;-71
2022/10/19 11:33:01;;;;;;;57.77;2.80;;;;;;;;;;5113238;28;20456;-69
2022/10/19 11:35:37;;;;;;;59.77;4.43;;;;;;;;;;5112732;28;20489;-69
2022/10/19 11:38:13;;;;;;;59.43;3.47;;;;;;;;;;5112677;28;20996;-69
2022/10/19 11:40:44;;;;;;;58.60;2.80;;;;;;;;;;5112673;28;20825;-67
2022/10/19 11:43:15;;;;;;;58.17;2.73;;;;;;;;;;5112692;28;20450;-69
2022/10/19 11:45:48;;;;;;;61.07;4.63;;;;;;;;;;5112871;28;20466;-69
2022/10/19 11:48:22;;;;;;;61.90;5.30;;;;;;;;;;5112691;28;20799;-70
2022/10/19 11:50:53;;;;;;;58.87;3.63;;;;;;;;;;5112333;28;20456;-70
2022/10/19 11:53:26;;;;;;;58.47;2.83;;;;;;;;;;5112653;28;20457;-69
2022/10/19 11:55:58;;;;;;;57.67;2.30;;;;;;;;;;5112746;28;20575;-69
2022/10/19 11:58:30;;;;;;;57.90;2.30;;;;;;;;;;5112565;28;20903;-67
2022/10/19 12:01:00;;;;;;;57.50;2.50;;;;;;;;;;5112649;28;20451;-68
2022/10/19 12:03:35;;;;;;;57.60;2.10;;;;;;;;;;5112453;28;20442;-68
2022/10/19 12:06:08;;;;;;;57.30;2.10;;;;;;;;;;5112197;28;20483;-68
2022/10/19 12:08:41;;;;;;;57.80;2.30;;;;;;;;;;5112257;28;20477;-69
2022/10/19 12:11:15;;;;;;;57.30;2.00;;;;;;;;;;5112478;28;20457;-68
2022/10/19 12:13:45;;;;;;;57.70;1.90;;;;;;;;;;5112334;28;20502;-67
2022/10/19 12:16:13;;;;;;;57.43;2.20;;;;;;;;;;5112225;28;20473;-68
2022/10/19 12:18:42;;;;;;;57.40;2.30;;;;;;;;;;5111831;28;20481;-68
2022/10/19 12:21:11;;;;;;;57.27;1.97;;;;;;;;;;5112220;28;20453;-68
2022/10/19 12:23:40;;;;;;;57.40;2.00;;;;;;;;;;5112471;28;20445;-70
2022/10/19 12:26:09;;;;;;;57.20;2.20;;;;;;;;;;5112247;28;20469;-69
2022/10/19 12:28:37;;;;;;;57.33;2.30;;;;;;;;;;5111809;28;20442;-68
2022/10/19 12:31:05;;;;;;;58.37;2.30;;;;;;;;;;5111991;28;20449;-68
2022/10/19 12:33:41;;;;;;;57.70;2.20;;;;;;;;;;5112153;28;20477;-68
2022/10/19 12:36:16;;;;;;;57.20;2.13;;;;;;;;;;5112054;28;20985;-69
2022/10/19 12:38:48;;;;;;;58.47;2.77;;;;;;;;;;5111821;28;20477;-69
2022/10/19 12:41:20;;;;;;;62.20;2.93;;;;;;;;;;5112075;28;20455;-69
2022/10/19 12:43:57;;;;;;;57.90;2.30;;;;;;;;;;5112014;28;20955;-69
2022/10/19 12:46:28;;;;;;;57.10;2.00;;;;;;;;;;5112079;28;20469;-70
2022/10/19 12:49:13;;;;;;;57.87;2.43;;;;;;;;;;5111595;28;20942;-69
2022/10/19 12:51:45;;;;;;;57.40;2.13;;;;;;;;;;5111736;28;20958;-70
2022/10/19 12:54:13;;;;;;;58.20;2.50;;;;;;;;;;5112074;27;20446;-69
2022/10/19 12:56:47;;;;;;;57.30;2.10;;;;;;;;;;5111970;28;20466;-68
2022/10/19 12:59:22;;;;;;;57.03;1.90;;;;;;;;;;5111730;28;20441;-69
2022/10/19 13:01:49;;;;;;;57.47;2.17;;;;;;;;;;5109160;28;20838;-68
2022/10/19 13:04:18;;;;;;;59.20;1.90;;;;;;;;;;5115018;28;20441;-69
2022/10/19 13:06:48;;;;;;;57.37;2.07;;;;;;;;;;5115656;28;20460;-69
2022/10/19 13:09:25;;;;;;;57.80;2.20;;;;;;;;;;5115686;28;20448;-70
2022/10/19 13:12:20;;;;;;;57.77;2.10;;;;;;;;;;5115896;28;20879;-70
2022/10/19 13:14:48;;;;;;;57.37;2.23;;;;;;;;;;5115342;28;20441;-71
2022/10/19 13:17:39;;;;;;;58.47;2.50;;;;;;;;;;5115683;28;20492;-70
2022/10/19 13:20:25;;;;;;;57.60;2.10;;;;;;;;;;5115256;28;20445;-68
2022/10/19 13:23:12;;;;;;;57.27;2.03;;;;;;;;;;5115531;28;20452;-69
2022/10/19 13:25:41;;;;;;;58.53;2.90;;;;;;;;;;5115210;28;20453;-70
2022/10/19 13:28:26;;;;;;;57.57;2.37;;;;;;;;;;5115491;28;20446;-70
2022/10/19 13:31:01;;;;;;;59.30;2.30;;;;;;;;;;5115333;28;20441;-70
2022/10/19 13:33:50;;;;;;;57.80;2.20;;;;;;;;;;5115232;28;20447;-70
2022/10/19 13:36:17;;;;;;;58.27;2.50;;;;;;;;;;5115199;28;20471;-70
2022/10/19 13:38:45;;;;;;;57.40;2.40;;;;;;;;;;5114919;28;20486;-70
2022/10/19 13:41:17;;;;;;;61.50;2.50;;;;;;;;;;5115246;28;20441;-70
2022/10/19 13:44:01;;;;;;;57.70;2.60;;;;;;;;;;5115117;28;20498;-69
2022/10/19 13:46:39;;;;;;;60.27;2.73;;;;;;;;;;5115182;28;20844;-69
2022/10/19 13:49:26;;;;;;;57.70;2.30;;;;;;;;;;5114912;27;20445;-69
2022/10/19 13:52:00;;;;;;;58.20;2.10;;;;;;;;;;5110264;28;20852;-70
2022/10/19 13:54:33;;;;;;;57.57;2.37;;;;;;;;;;5114905;28;20811;-70
2022/10/19 13:57:10;;;;;;;57.43;2.17;;;;;;;;;;5115109;28;20471;-70
2022/10/19 13:59:46;;;;;;;57.40;2.17;;;;;;;;;;5114836;28;20442;-69
2022/10/19 14:02:23;;;;;;;57.27;2.33;;;;;;;;;;5114857;28;20448;-69
2022/10/19 14:04:53;;;;;;;60.70;2.90;;;;;;;;;;5114690;28;20441;-70
2022/10/19 14:07:24;;;;;;;58.00;2.53;;;;;;;;;;5114657;28;21032;-70
2022/10/19 14:10:02;;;;;;;57.27;2.07;;;;;;;;;;5114523;28;20815;-69
2022/10/19 14:12:34;;;;;;;58.73;2.37;;;;;;;;;;5114601;28;20441;-70
2022/10/19 14:15:01;;;;;;;57.47;2.13;;;;;;;;;;5114333;28;20513;-70
2022/10/19 14:17:32;;;;;;;57.90;2.17;;;;;;;;;;5114353;28;20476;-70
2022/10/19 14:20:02;;;;;;;57.63;2.60;;;;;;;;;;5114120;28;20493;-69
2022/10/19 14:22:32;;;;;;;57.60;2.17;;;;;;;;;;5114326;28;20536;-69
2022/10/19 14:25:03;;;;;;;57.20;2.00;;;;;;;;;;5114500;28;20450;-70
2022/10/19 14:27:32;;;;;;;57.87;2.07;;;;;;;;;;5114118;28;20470;-69
2022/10/19 14:29:59;;;;;;;56.80;2.07;;;;;;;;;;5114126;28;20441;-70
2022/10/19 14:32:27;;;;;;;57.67;2.10;;;;;;;;;;5114179;28;20666;-70
2022/10/19 14:34:55;;;;;;;57.40;2.43;;;;;;;;;;5114097;28;20836;-69
2022/10/19 14:37:23;;;;;;;57.37;2.20;;;;;;;;;;5114007;28;20462;-69
2022/10/19 14:40:00;;;;;;;58.17;2.60;;;;;;;;;;5113814;28;20453;-69
2022/10/19 14:42:37;;;;;;;57.77;2.43;;;;;;;;;;5113972;28;20446;-69
2022/10/19 14:45:05;;;;;;;57.80;2.30;;;;;;;;;;5114166;28;20449;-69